sensor_id;sensor_type;location;lat;lon;timestamp;temperature;humidity
12720;DHT22;6424;48.520;11.228;2023-02-01T00:02:13;2.70;99.90
12720;DHT22;6424;48.520;11.228;2023-02-01T00:04:54;2.70;99.90
12720;DHT22;6424;48.520;11.228;2023-02-01T00:07:36;2.70;99.90
12720;DHT22;6424;48.520;11.228;2023-02-01T00:10:03;2.70;99.90
12720;DHT22;6424;48.520;11.228;2023-02-01T00:12:44;2.70;99.90
12720;DHT22;6424;48.520;11.228;2023-02-01T00:15:25;2.80;99.90
12720;DHT22;6424;48.520;11.228;2023-02-01T00:18:06;2.80;99.90
12720;DHT22;6424;48.520;11.228;2023-02-01T00:20:47;2.80;99.90
12720;DHT22;6424;48.520;11.228;2023-02-01T00:23:12;2.80;99.90
12720;DHT22;6424;48.520;11.228;2023-02-01T00:25:53;2.70;99.90
12720;DHT22;6424;48.520;11.228;2023-02-01T00:28:34;2.70;99.90
12720;DHT22;6424;48.520;11.228;2023-02-01T00:31:15;2.70;99.90
12720;DHT22;6424;48.520;11.228;2023-02-01T00:33:56;2.60;99.90
12720;DHT22;6424;48.520;11.228;2023-02-01T00:36:36;2.60;99.90
12720;DHT22;6424;48.520;11.228;2023-02-01T00:39:17;2.60;99.90
12720;DHT22;6424;48.520;11.228;2023-02-01T00:41:59;2.60;99.90
12720;DHT22;6424;48.520;11.228;2023-02-01T00:44:40;2.60;99.90
12720;DHT22;6424;48.520;11.228;2023-02-01T00:47:21;2.60;99.90
12720;DHT22;6424;48.520;11.228;2023-02-01T00:50:02;2.60;99.90
12720;DHT22;6424;48.520;11.228;2023-02-01T00:52:43;2.60;99.90
12720;DHT22;6424;48.520;11.228;2023-02-01T00:55:24;2.60;99.90
12720;DHT22;6424;48.520;11.228;2023-02-01T00:58:05;2.60;99.90
12720;DHT22;6424;48.520;11.228;2023-02-01T01:00:46;2.60;99.90
12720;DHT22;6424;48.520;11.228;2023-02-01T01:03:30;2.60;99.90
12720;DHT22;6424;48.520;11.228;2023-02-01T01:06:22;2.50;99.90
12720;DHT22;6424;48.520;11.228;2023-02-01T01:09:06;2.50;99.90
12720;DHT22;6424;48.520;11.228;2023-02-01T01:11:47;2.50;99.90
12720;DHT22;6424;48.520;11.228;2023-02-01T01:14:29;2.50;99.90
12720;DHT22;6424;48.520;11.228;2023-02-01T01:17:10;2.50;99.90
12720;DHT22;6424;48.520;11.228;2023-02-01T01:19:51;2.50;99.90
12720;DHT22;6424;48.520;11.228;2023-02-01T01:22:32;2.50;99.90
12720;DHT22;6424;48.520;11.228;2023-02-01T01:25:13;2.50;99.90
12720;DHT22;6424;48.520;11.228;2023-02-01T01:27:54;2.50;99.90
12720;DHT22;6424;48.520;11.228;2023-02-01T01:30:35;2.50;99.90
12720;DHT22;6424;48.520;11.228;2023-02-01T01:33:16;2.50;99.90
12720;DHT22;6424;48.520;11.228;2023-02-01T01:35:57;2.50;99.90
12720;DHT22;6424;48.520;11.228;2023-02-01T01:38:39;2.50;99.90
12720;DHT22;6424;48.520;11.228;2023-02-01T01:41:23;2.50;99.90
12720;DHT22;6424;48.520;11.228;2023-02-01T01:44:53;2.50;99.90
12720;DHT22;6424;48.520;11.228;2023-02-01T01:47:06;2.50;99.90
12720;DHT22;6424;48.520;11.228;2023-02-01T01:49:47;2.50;99.90
12720;DHT22;6424;48.520;11.228;2023-02-01T01:52:28;2.50;99.90
12720;DHT22;6424;48.520;11.228;2023-02-01T01:55:09;2.50;99.90
12720;DHT22;6424;48.520;11.228;2023-02-01T01:57:59;2.50;99.90
12720;DHT22;6424;48.520;11.228;2023-02-01T02:00:41;2.60;99.90
12720;DHT22;6424;48.520;11.228;2023-02-01T02:03:40;2.60;99.90
12720;DHT22;6424;48.520;11.228;2023-02-01T02:06:33;2.60;99.90
12720;DHT22;6424;48.520;11.228;2023-02-01T02:09:16;2.60;99.90
12720;DHT22;6424;48.520;11.228;2023-02-01T02:11:42;2.50;99.90
12720;DHT22;6424;48.520;11.228;2023-02-01T02:14:23;2.50;99.90
12720;DHT22;6424;48.520;11.228;2023-02-01T02:43:22;2.50;99.90
12720;DHT22;6424;48.520;11.228;2023-02-01T02:46:23;2.50;99.90
12720;DHT22;6424;48.520;11.228;2023-02-01T02:49:42;2.50;99.90
12720;DHT22;6424;48.520;11.228;2023-02-01T02:52:56;2.50;99.90
12720;DHT22;6424;48.520;11.228;2023-02-01T02:55:57;2.50;99.90
12720;DHT22;6424;48.520;11.228;2023-02-01T02:58:58;2.50;99.90
12720;DHT22;6424;48.520;11.228;2023-02-01T03:01:57;2.40;99.90
12720;DHT22;6424;48.520;11.228;2023-02-01T03:04:57;2.40;99.90
12720;DHT22;6424;48.520;11.228;2023-02-01T03:21:57;2.40;99.90
12720;DHT22;6424;48.520;11.228;2023-02-01T03:24:48;2.40;99.90
12720;DHT22;6424;48.520;11.228;2023-02-01T03:27:37;2.40;99.90
12720;DHT22;6424;48.520;11.228;2023-02-01T03:30:36;2.40;99.90
12720;DHT22;6424;48.520;11.228;2023-02-01T03:33:21;2.40;99.90
12720;DHT22;6424;48.520;11.228;2023-02-01T03:41:54;2.40;99.90
12720;DHT22;6424;48.520;11.228;2023-02-01T03:44:46;2.40;99.90
12720;DHT22;6424;48.520;11.228;2023-02-01T03:47:30;2.40;99.90
12720;DHT22;6424;48.520;11.228;2023-02-01T03:50:24;2.40;99.90
12720;DHT22;6424;48.520;11.228;2023-02-01T03:53:09;2.40;99.90
12720;DHT22;6424;48.520;11.228;2023-02-01T03:55:38;2.40;99.90
12720;DHT22;6424;48.520;11.228;2023-02-01T03:58:20;2.50;99.90
12720;DHT22;6424;48.520;11.228;2023-02-01T04:01:02;2.50;99.90
12720;DHT22;6424;48.520;11.228;2023-02-01T04:03:43;2.40;99.90
12720;DHT22;6424;48.520;11.228;2023-02-01T04:06:24;2.50;99.90
12720;DHT22;6424;48.520;11.228;2023-02-01T04:09:05;2.50;99.90
12720;DHT22;6424;48.520;11.228;2023-02-01T04:11:46;2.40;99.90
12720;DHT22;6424;48.520;11.228;2023-02-01T04:14:26;2.50;99.90
12720;DHT22;6424;48.520;11.228;2023-02-01T04:17:07;2.50;99.90
12720;DHT22;6424;48.520;11.228;2023-02-01T04:19:33;2.50;99.90
12720;DHT22;6424;48.520;11.228;2023-02-01T04:22:14;2.50;99.90
12720;DHT22;6424;48.520;11.228;2023-02-01T04:24:55;2.50;99.90
12720;DHT22;6424;48.520;11.228;2023-02-01T04:27:36;2.50;99.90
12720;DHT22;6424;48.520;11.228;2023-02-01T04:30:17;2.50;99.90
12720;DHT22;6424;48.520;11.228;2023-02-01T04:32:58;2.50;99.90
12720;DHT22;6424;48.520;11.228;2023-02-01T04:35:23;2.50;99.90
12720;DHT22;6424;48.520;11.228;2023-02-01T04:38:04;2.50;99.90
12720;DHT22;6424;48.520;11.228;2023-02-01T04:40:47;2.50;99.90
12720;DHT22;6424;48.520;11.228;2023-02-01T04:43:28;2.50;99.90
12720;DHT22;6424;48.520;11.228;2023-02-01T04:46:09;2.50;99.90
12720;DHT22;6424;48.520;11.228;2023-02-01T04:48:50;2.60;99.90
12720;DHT22;6424;48.520;11.228;2023-02-01T04:51:30;2.50;99.90
12720;DHT22;6424;48.520;11.228;2023-02-01T04:54:11;2.50;99.90
12720;DHT22;6424;48.520;11.228;2023-02-01T04:56:52;2.60;99.90
12720;DHT22;6424;48.520;11.228;2023-02-01T04:59:33;2.60;99.90
12720;DHT22;6424;48.520;11.228;2023-02-01T05:02:14;2.60;99.90
12720;DHT22;6424;48.520;11.228;2023-02-01T05:04:55;2.60;99.90
12720;DHT22;6424;48.520;11.228;2023-02-01T05:07:36;2.60;99.90
12720;DHT22;6424;48.520;11.228;2023-02-01T05:10:17;2.60;99.90
12720;DHT22;6424;48.520;11.228;2023-02-01T05:12:57;2.70;99.90
12720;DHT22;6424;48.520;11.228;2023-02-01T05:15:57;2.70;99.90
12720;DHT22;6424;48.520;11.228;2023-02-01T05:18:37;2.70;99.90
12720;DHT22;6424;48.520;11.228;2023-02-01T05:21:18;2.70;99.90
12720;DHT22;6424;48.520;11.228;2023-02-01T05:23:44;2.70;99.90
12720;DHT22;6424;48.520;11.228;2023-02-01T05:26:51;2.70;99.90
12720;DHT22;6424;48.520;11.228;2023-02-01T05:29:32;2.70;99.90
12720;DHT22;6424;48.520;11.228;2023-02-01T05:32:13;2.70;99.90
12720;DHT22;6424;48.520;11.228;2023-02-01T05:34:39;2.70;99.90
12720;DHT22;6424;48.520;11.228;2023-02-01T05:37:19;2.80;99.90
12720;DHT22;6424;48.520;11.228;2023-02-01T05:40:00;2.80;99.90
12720;DHT22;6424;48.520;11.228;2023-02-01T05:42:26;2.80;99.90
12720;DHT22;6424;48.520;11.228;2023-02-01T05:45:07;2.70;99.90
12720;DHT22;6424;48.520;11.228;2023-02-01T05:47:48;2.70;99.90
12720;DHT22;6424;48.520;11.228;2023-02-01T05:50:29;2.70;99.90
12720;DHT22;6424;48.520;11.228;2023-02-01T05:52:55;2.70;99.90
12720;DHT22;6424;48.520;11.228;2023-02-01T05:55:36;2.70;99.90
12720;DHT22;6424;48.520;11.228;2023-02-01T05:58:17;2.70;99.90
12720;DHT22;6424;48.520;11.228;2023-02-01T06:01:02;2.70;99.90
12720;DHT22;6424;48.520;11.228;2023-02-01T06:03:43;2.70;99.90
12720;DHT22;6424;48.520;11.228;2023-02-01T06:06:09;2.80;99.90
12720;DHT22;6424;48.520;11.228;2023-02-01T06:08:35;2.80;99.90
12720;DHT22;6424;48.520;11.228;2023-02-01T06:11:15;2.80;99.90
12720;DHT22;6424;48.520;11.228;2023-02-01T06:13:56;2.80;99.90
12720;DHT22;6424;48.520;11.228;2023-02-01T06:16:37;2.90;99.90
12720;DHT22;6424;48.520;11.228;2023-02-01T06:19:18;2.90;99.90
12720;DHT22;6424;48.520;11.228;2023-02-01T06:21:58;2.90;99.90
12720;DHT22;6424;48.520;11.228;2023-02-01T06:24:39;2.90;99.90
12720;DHT22;6424;48.520;11.228;2023-02-01T06:27:21;2.90;99.90
12720;DHT22;6424;48.520;11.228;2023-02-01T06:30:03;2.90;99.90
12720;DHT22;6424;48.520;11.228;2023-02-01T06:32:44;3.00;99.90
12720;DHT22;6424;48.520;11.228;2023-02-01T06:35:25;3.00;99.90
12720;DHT22;6424;48.520;11.228;2023-02-01T06:38:06;3.00;99.90
12720;DHT22;6424;48.520;11.228;2023-02-01T06:40:52;3.00;99.90
12720;DHT22;6424;48.520;11.228;2023-02-01T06:43:18;3.00;99.90
12720;DHT22;6424;48.520;11.228;2023-02-01T06:46:04;3.00;99.90
12720;DHT22;6424;48.520;11.228;2023-02-01T06:48:45;3.00;99.90
12720;DHT22;6424;48.520;11.228;2023-02-01T06:51:23;3.00;99.90
12720;DHT22;6424;48.520;11.228;2023-02-01T06:54:04;3.00;99.90
12720;DHT22;6424;48.520;11.228;2023-02-01T06:56:45;3.00;99.90
12720;DHT22;6424;48.520;11.228;2023-02-01T06:59:26;3.00;99.90
12720;DHT22;6424;48.520;11.228;2023-02-01T07:01:52;3.00;99.90
12720;DHT22;6424;48.520;11.228;2023-02-01T07:04:32;3.00;99.90
12720;DHT22;6424;48.520;11.228;2023-02-01T07:07:13;3.10;99.90
12720;DHT22;6424;48.520;11.228;2023-02-01T07:09:55;3.10;99.90
12720;DHT22;6424;48.520;11.228;2023-02-01T07:12:36;3.10;99.90
12720;DHT22;6424;48.520;11.228;2023-02-01T07:15:18;3.10;99.90
12720;DHT22;6424;48.520;11.228;2023-02-01T07:17:59;3.10;99.90
12720;DHT22;6424;48.520;11.228;2023-02-01T07:20:40;3.20;99.90
12720;DHT22;6424;48.520;11.228;2023-02-01T07:23:21;3.20;99.90
12720;DHT22;6424;48.520;11.228;2023-02-01T07:26:04;3.20;99.90
12720;DHT22;6424;48.520;11.228;2023-02-01T07:28:45;3.20;99.90
12720;DHT22;6424;48.520;11.228;2023-02-01T07:31:27;3.30;99.90
12720;DHT22;6424;48.520;11.228;2023-02-01T07:34:13;3.30;99.90
12720;DHT22;6424;48.520;11.228;2023-02-01T07:36:54;3.30;99.90
12720;DHT22;6424;48.520;11.228;2023-02-01T07:39:34;3.30;99.90
12720;DHT22;6424;48.520;11.228;2023-02-01T07:42:15;3.30;99.90
12720;DHT22;6424;48.520;11.228;2023-02-01T07:44:56;3.30;99.90
12720;DHT22;6424;48.520;11.228;2023-02-01T07:47:22;3.30;99.90
12720;DHT22;6424;48.520;11.228;2023-02-01T07:49:48;3.30;99.90
12720;DHT22;6424;48.520;11.228;2023-02-01T07:52:29;3.40;99.90
12720;DHT22;6424;48.520;11.228;2023-02-01T07:55:10;3.40;99.90
12720;DHT22;6424;48.520;11.228;2023-02-01T07:57:51;3.40;99.90
12720;DHT22;6424;48.520;11.228;2023-02-01T08:00:32;3.40;99.90
12720;DHT22;6424;48.520;11.228;2023-02-01T08:03:31;3.40;99.90
12720;DHT22;6424;48.520;11.228;2023-02-01T08:06:12;3.50;99.90
12720;DHT22;6424;48.520;11.228;2023-02-01T08:08:53;3.40;99.90
12720;DHT22;6424;48.520;11.228;2023-02-01T08:11:34;3.50;99.90
12720;DHT22;6424;48.520;11.228;2023-02-01T08:14:18;3.50;99.90
12720;DHT22;6424;48.520;11.228;2023-02-01T08:16:58;3.50;99.90
12720;DHT22;6424;48.520;11.228;2023-02-01T08:19:39;3.50;99.90
12720;DHT22;6424;48.520;11.228;2023-02-01T08:22:05;3.50;99.90
12720;DHT22;6424;48.520;11.228;2023-02-01T08:24:50;3.50;99.90
12720;DHT22;6424;48.520;11.228;2023-02-01T08:27:35;3.50;99.90
12720;DHT22;6424;48.520;11.228;2023-02-01T08:30:16;3.60;99.90
12720;DHT22;6424;48.520;11.228;2023-02-01T08:32:57;3.60;99.90
12720;DHT22;6424;48.520;11.228;2023-02-01T08:35:38;3.60;99.90
12720;DHT22;6424;48.520;11.228;2023-02-01T08:38:19;3.60;99.90
12720;DHT22;6424;48.520;11.228;2023-02-01T08:41:08;3.60;99.90
12720;DHT22;6424;48.520;11.228;2023-02-01T08:43:49;3.60;99.90
12720;DHT22;6424;48.520;11.228;2023-02-01T08:46:16;3.60;99.90
12720;DHT22;6424;48.520;11.228;2023-02-01T08:48:57;3.70;99.90
12720;DHT22;6424;48.520;11.228;2023-02-01T08:51:38;3.70;99.90
12720;DHT22;6424;48.520;11.228;2023-02-01T08:54:20;3.70;99.90
12720;DHT22;6424;48.520;11.228;2023-02-01T08:57:00;3.70;99.90
12720;DHT22;6424;48.520;11.228;2023-02-01T08:59:41;3.80;99.90
12720;DHT22;6424;48.520;11.228;2023-02-01T09:02:24;3.80;99.90
12720;DHT22;6424;48.520;11.228;2023-02-01T09:05:05;3.80;99.90
12720;DHT22;6424;48.520;11.228;2023-02-01T09:07:32;3.80;99.90
12720;DHT22;6424;48.520;11.228;2023-02-01T09:10:13;3.80;99.90
12720;DHT22;6424;48.520;11.228;2023-02-01T09:12:54;3.80;99.90
12720;DHT22;6424;48.520;11.228;2023-02-01T09:15:20;3.80;99.90
12720;DHT22;6424;48.520;11.228;2023-02-01T09:18:01;3.80;99.90
12720;DHT22;6424;48.520;11.228;2023-02-01T09:20:42;3.90;99.90
12720;DHT22;6424;48.520;11.228;2023-02-01T09:23:23;3.90;99.90
12720;DHT22;6424;48.520;11.228;2023-02-01T09:26:04;4.00;99.90
12720;DHT22;6424;48.520;11.228;2023-02-01T09:28:45;3.90;99.90
12720;DHT22;6424;48.520;11.228;2023-02-01T09:31:11;3.90;99.90
12720;DHT22;6424;48.520;11.228;2023-02-01T09:33:52;3.90;99.90
12720;DHT22;6424;48.520;11.228;2023-02-01T09:36:33;3.90;99.90
12720;DHT22;6424;48.520;11.228;2023-02-01T09:39:14;3.90;99.90
12720;DHT22;6424;48.520;11.228;2023-02-01T09:47:59;4.00;99.90
12720;DHT22;6424;48.520;11.228;2023-02-01T09:50:45;4.00;99.90
12720;DHT22;6424;48.520;11.228;2023-02-01T09:54:01;4.00;99.90
12720;DHT22;6424;48.520;11.228;2023-02-01T09:57:02;4.00;99.90
12720;DHT22;6424;48.520;11.228;2023-02-01T09:59:46;4.00;99.90
12720;DHT22;6424;48.520;11.228;2023-02-01T10:02:30;4.00;99.90
12720;DHT22;6424;48.520;11.228;2023-02-01T10:05:18;4.10;99.90
12720;DHT22;6424;48.520;11.228;2023-02-01T10:08:18;4.10;99.90
12720;DHT22;6424;48.520;11.228;2023-02-01T10:18:00;4.10;99.90
12720;DHT22;6424;48.520;11.228;2023-02-01T10:21:19;4.10;99.90
12720;DHT22;6424;48.520;11.228;2023-02-01T10:30:13;4.20;99.90
12720;DHT22;6424;48.520;11.228;2023-02-01T10:36:13;4.20;99.90
12720;DHT22;6424;48.520;11.228;2023-02-01T10:38:54;4.20;99.90
12720;DHT22;6424;48.520;11.228;2023-02-01T10:41:38;4.20;99.90
12720;DHT22;6424;48.520;11.228;2023-02-01T10:44:25;4.20;99.90
12720;DHT22;6424;48.520;11.228;2023-02-01T10:47:09;4.20;99.90
12720;DHT22;6424;48.520;11.228;2023-02-01T10:50:16;4.30;99.90
12720;DHT22;6424;48.520;11.228;2023-02-01T10:52:59;4.30;99.90
12720;DHT22;6424;48.520;11.228;2023-02-01T10:55:53;4.30;99.90
12720;DHT22;6424;48.520;11.228;2023-02-01T10:58:36;4.30;99.90
12720;DHT22;6424;48.520;11.228;2023-02-01T11:01:34;4.30;99.90
12720;DHT22;6424;48.520;11.228;2023-02-01T11:04:18;4.30;99.90
12720;DHT22;6424;48.520;11.228;2023-02-01T11:07:16;4.30;99.90
12720;DHT22;6424;48.520;11.228;2023-02-01T11:09:59;4.40;99.90
12720;DHT22;6424;48.520;11.228;2023-02-01T11:12:40;4.40;99.90
12720;DHT22;6424;48.520;11.228;2023-02-01T11:15:18;4.40;99.90
12720;DHT22;6424;48.520;11.228;2023-02-01T11:18:17;4.40;99.90
12720;DHT22;6424;48.520;11.228;2023-02-01T11:20:58;4.40;99.90
12720;DHT22;6424;48.520;11.228;2023-02-01T11:23:43;4.40;99.90
12720;DHT22;6424;48.520;11.228;2023-02-01T11:26:26;4.30;99.90
12720;DHT22;6424;48.520;11.228;2023-02-01T11:29:13;4.30;99.90
12720;DHT22;6424;48.520;11.228;2023-02-01T11:31:59;4.30;99.90
12720;DHT22;6424;48.520;11.228;2023-02-01T11:34:59;4.30;99.90
12720;DHT22;6424;48.520;11.228;2023-02-01T11:37:42;4.20;99.90
12720;DHT22;6424;48.520;11.228;2023-02-01T11:40:50;4.20;99.90
12720;DHT22;6424;48.520;11.228;2023-02-01T11:43:27;4.10;99.90
12720;DHT22;6424;48.520;11.228;2023-02-01T11:46:17;4.10;99.90
12720;DHT22;6424;48.520;11.228;2023-02-01T11:49:23;4.00;99.90
12720;DHT22;6424;48.520;11.228;2023-02-01T11:55:56;3.90;99.90
12720;DHT22;6424;48.520;11.228;2023-02-01T12:22:54;3.90;99.90
12720;DHT22;6424;48.520;11.228;2023-02-01T12:32:11;4.10;99.90
12720;DHT22;6424;48.520;11.228;2023-02-01T12:41:32;4.10;99.90
12720;DHT22;6424;48.520;11.228;2023-02-01T12:44:19;4.10;99.90
12720;DHT22;6424;48.520;11.228;2023-02-01T12:50:17;4.10;99.90
12720;DHT22;6424;48.520;11.228;2023-02-01T12:56:28;4.10;99.90
12720;DHT22;6424;48.520;11.228;2023-02-01T13:05:21;4.10;99.90
12720;DHT22;6424;48.520;11.228;2023-02-01T13:08:08;4.10;99.90
12720;DHT22;6424;48.520;11.228;2023-02-01T13:11:00;4.10;99.90
12720;DHT22;6424;48.520;11.228;2023-02-01T13:14:14;4.10;99.90
12720;DHT22;6424;48.520;11.228;2023-02-01T13:17:05;4.10;99.90
12720;DHT22;6424;48.520;11.228;2023-02-01T13:22:30;4.10;99.90
12720;DHT22;6424;48.520;11.228;2023-02-01T13:28:04;4.20;99.90
12720;DHT22;6424;48.520;11.228;2023-02-01T13:37:02;4.30;99.90
12720;DHT22;6424;48.520;11.228;2023-02-01T13:42:59;4.30;99.90
12720;DHT22;6424;48.520;11.228;2023-02-01T13:45:49;4.30;99.90
12720;DHT22;6424;48.520;11.228;2023-02-01T13:48:51;4.30;99.90
12720;DHT22;6424;48.520;11.228;2023-02-01T13:54:35;4.30;99.90
12720;DHT22;6424;48.520;11.228;2023-02-01T13:57:37;4.30;99.90
12720;DHT22;6424;48.520;11.228;2023-02-01T14:00:23;4.30;99.90
12720;DHT22;6424;48.520;11.228;2023-02-01T14:08:41;4.20;99.90
12720;DHT22;6424;48.520;11.228;2023-02-01T14:19:41;4.30;99.90
12720;DHT22;6424;48.520;11.228;2023-02-01T14:25:16;4.20;99.90
12720;DHT22;6424;48.520;11.228;2023-02-01T14:27:57;4.20;99.90
12720;DHT22;6424;48.520;11.228;2023-02-01T14:30:41;4.20;99.90
12720;DHT22;6424;48.520;11.228;2023-02-01T14:33:25;4.20;99.90
12720;DHT22;6424;48.520;11.228;2023-02-01T14:36:12;4.20;99.90
12720;DHT22;6424;48.520;11.228;2023-02-01T14:38:54;4.30;99.90
12720;DHT22;6424;48.520;11.228;2023-02-01T14:41:35;4.30;99.90
12720;DHT22;6424;48.520;11.228;2023-02-01T14:44:24;4.30;99.90
12720;DHT22;6424;48.520;11.228;2023-02-01T14:47:27;4.30;99.90
12720;DHT22;6424;48.520;11.228;2023-02-01T15:01:48;4.20;99.90
12720;DHT22;6424;48.520;11.228;2023-02-01T15:04:41;4.20;99.90
12720;DHT22;6424;48.520;11.228;2023-02-01T15:07:24;4.20;99.90
12720;DHT22;6424;48.520;11.228;2023-02-01T15:10:06;4.10;99.90
12720;DHT22;6424;48.520;11.228;2023-02-01T15:12:48;4.10;99.90
12720;DHT22;6424;48.520;11.228;2023-02-01T15:15:30;4.10;99.90
12720;DHT22;6424;48.520;11.228;2023-02-01T15:18:17;4.10;99.90
12720;DHT22;6424;48.520;11.228;2023-02-01T15:21:01;4.00;99.90
12720;DHT22;6424;48.520;11.228;2023-02-01T15:23:42;4.00;99.90
12720;DHT22;6424;48.520;11.228;2023-02-01T15:26:31;4.00;99.90
12720;DHT22;6424;48.520;11.228;2023-02-01T15:29:13;4.00;99.90
12720;DHT22;6424;48.520;11.228;2023-02-01T15:31:54;4.00;99.90
12720;DHT22;6424;48.520;11.228;2023-02-01T15:34:49;4.00;99.90
12720;DHT22;6424;48.520;11.228;2023-02-01T15:37:30;4.00;99.90
12720;DHT22;6424;48.520;11.228;2023-02-01T15:42:58;4.10;99.90
12720;DHT22;6424;48.520;11.228;2023-02-01T15:45:39;4.10;99.90
12720;DHT22;6424;48.520;11.228;2023-02-01T15:48:23;4.10;99.90
12720;DHT22;6424;48.520;11.228;2023-02-01T15:51:05;4.10;99.90
12720;DHT22;6424;48.520;11.228;2023-02-01T15:53:58;4.10;99.90
12720;DHT22;6424;48.520;11.228;2023-02-01T15:56:27;4.10;99.90
12720;DHT22;6424;48.520;11.228;2023-02-01T15:59:17;4.10;99.90
12720;DHT22;6424;48.520;11.228;2023-02-01T16:01:58;4.10;99.90
12720;DHT22;6424;48.520;11.228;2023-02-01T16:04:46;4.10;99.90
12720;DHT22;6424;48.520;11.228;2023-02-01T16:07:33;4.10;99.90
12720;DHT22;6424;48.520;11.228;2023-02-01T16:10:25;4.10;99.90
12720;DHT22;6424;48.520;11.228;2023-02-01T16:13:06;4.10;99.90
12720;DHT22;6424;48.520;11.228;2023-02-01T16:15:48;4.10;99.90
12720;DHT22;6424;48.520;11.228;2023-02-01T16:18:29;4.10;99.90
12720;DHT22;6424;48.520;11.228;2023-02-01T16:21:10;4.00;99.90
12720;DHT22;6424;48.520;11.228;2023-02-01T16:23:51;4.00;99.90
12720;DHT22;6424;48.520;11.228;2023-02-01T16:26:33;4.00;99.90
12720;DHT22;6424;48.520;11.228;2023-02-01T16:29:14;4.00;99.90
12720;DHT22;6424;48.520;11.228;2023-02-01T16:31:56;4.00;99.90
12720;DHT22;6424;48.520;11.228;2023-02-01T16:34:37;4.00;99.90
12720;DHT22;6424;48.520;11.228;2023-02-01T16:37:23;4.00;99.90
12720;DHT22;6424;48.520;11.228;2023-02-01T16:40:04;4.00;99.90
12720;DHT22;6424;48.520;11.228;2023-02-01T16:42:46;4.00;99.90
12720;DHT22;6424;48.520;11.228;2023-02-01T16:45:28;4.00;99.90
12720;DHT22;6424;48.520;11.228;2023-02-01T16:48:21;4.00;99.90
12720;DHT22;6424;48.520;11.228;2023-02-01T16:51:07;4.10;99.90
12720;DHT22;6424;48.520;11.228;2023-02-01T16:53:34;4.10;99.90
12720;DHT22;6424;48.520;11.228;2023-02-01T16:56:19;4.10;99.90
12720;DHT22;6424;48.520;11.228;2023-02-01T16:59:00;4.10;99.90
12720;DHT22;6424;48.520;11.228;2023-02-01T17:01:26;4.10;99.90
12720;DHT22;6424;48.520;11.228;2023-02-01T17:04:09;4.10;99.90
12720;DHT22;6424;48.520;11.228;2023-02-01T17:06:49;4.10;99.90
12720;DHT22;6424;48.520;11.228;2023-02-01T17:09:30;4.00;99.90
12720;DHT22;6424;48.520;11.228;2023-02-01T17:12:26;3.90;99.90
12720;DHT22;6424;48.520;11.228;2023-02-01T17:15:09;3.90;99.90
12720;DHT22;6424;48.520;11.228;2023-02-01T17:17:50;3.90;99.90
12720;DHT22;6424;48.520;11.228;2023-02-01T17:20:34;3.90;99.90
12720;DHT22;6424;48.520;11.228;2023-02-01T17:23:16;3.90;99.90
12720;DHT22;6424;48.520;11.228;2023-02-01T17:25:57;3.90;99.90
12720;DHT22;6424;48.520;11.228;2023-02-01T17:28:38;4.00;99.90
12720;DHT22;6424;48.520;11.228;2023-02-01T17:31:18;4.00;99.90
12720;DHT22;6424;48.520;11.228;2023-02-01T17:33:44;4.00;99.90
12720;DHT22;6424;48.520;11.228;2023-02-01T17:36:25;4.00;99.90
12720;DHT22;6424;48.520;11.228;2023-02-01T17:39:06;4.00;99.90
12720;DHT22;6424;48.520;11.228;2023-02-01T17:41:47;3.90;99.90
12720;DHT22;6424;48.520;11.228;2023-02-01T17:44:28;3.90;99.90
12720;DHT22;6424;48.520;11.228;2023-02-01T17:46:54;3.90;99.90
12720;DHT22;6424;48.520;11.228;2023-02-01T17:49:36;3.90;99.90
12720;DHT22;6424;48.520;11.228;2023-02-01T17:52:18;3.90;99.90
12720;DHT22;6424;48.520;11.228;2023-02-01T17:54:59;3.80;99.90
12720;DHT22;6424;48.520;11.228;2023-02-01T17:57:39;3.90;99.90
12720;DHT22;6424;48.520;11.228;2023-02-01T18:00:21;3.90;99.90
12720;DHT22;6424;48.520;11.228;2023-02-01T18:03:01;3.80;99.90
12720;DHT22;6424;48.520;11.228;2023-02-01T18:05:42;3.90;99.90
12720;DHT22;6424;48.520;11.228;2023-02-01T18:08:30;3.90;99.90
12720;DHT22;6424;48.520;11.228;2023-02-01T18:11:19;3.90;99.90
12720;DHT22;6424;48.520;11.228;2023-02-01T18:14:01;3.90;99.90
12720;DHT22;6424;48.520;11.228;2023-02-01T18:16:42;3.90;99.90
12720;DHT22;6424;48.520;11.228;2023-02-01T18:19:22;3.90;99.90
12720;DHT22;6424;48.520;11.228;2023-02-01T18:22:03;3.90;99.90
12720;DHT22;6424;48.520;11.228;2023-02-01T18:24:45;3.90;99.90
12720;DHT22;6424;48.520;11.228;2023-02-01T18:27:26;3.90;99.90
12720;DHT22;6424;48.520;11.228;2023-02-01T18:30:08;3.90;99.90
12720;DHT22;6424;48.520;11.228;2023-02-01T18:32:49;3.90;99.90
12720;DHT22;6424;48.520;11.228;2023-02-01T18:35:30;3.90;99.90
12720;DHT22;6424;48.520;11.228;2023-02-01T18:38:12;4.00;99.90
12720;DHT22;6424;48.520;11.228;2023-02-01T18:40:54;4.00;99.90
12720;DHT22;6424;48.520;11.228;2023-02-01T18:43:25;4.00;99.90
12720;DHT22;6424;48.520;11.228;2023-02-01T18:46:09;4.00;99.90
12720;DHT22;6424;48.520;11.228;2023-02-01T18:48:50;4.00;99.90
12720;DHT22;6424;48.520;11.228;2023-02-01T18:51:31;4.00;99.90
12720;DHT22;6424;48.520;11.228;2023-02-01T18:54:11;4.00;99.90
12720;DHT22;6424;48.520;11.228;2023-02-01T18:56:52;4.00;99.90
12720;DHT22;6424;48.520;11.228;2023-02-01T18:59:33;4.00;99.90
12720;DHT22;6424;48.520;11.228;2023-02-01T19:02:14;4.00;99.90
12720;DHT22;6424;48.520;11.228;2023-02-01T19:04:55;4.00;99.90
12720;DHT22;6424;48.520;11.228;2023-02-01T19:07:38;4.00;99.90
12720;DHT22;6424;48.520;11.228;2023-02-01T19:10:21;4.00;99.90
12720;DHT22;6424;48.520;11.228;2023-02-01T19:13:02;4.00;99.90
12720;DHT22;6424;48.520;11.228;2023-02-01T19:15:43;4.00;99.90
12720;DHT22;6424;48.520;11.228;2023-02-01T19:18:24;4.00;99.90
12720;DHT22;6424;48.520;11.228;2023-02-01T19:21:07;4.00;99.90
12720;DHT22;6424;48.520;11.228;2023-02-01T19:23:48;4.00;99.90
12720;DHT22;6424;48.520;11.228;2023-02-01T19:26:29;4.00;99.90
12720;DHT22;6424;48.520;11.228;2023-02-01T19:29:10;4.00;99.90
12720;DHT22;6424;48.520;11.228;2023-02-01T19:31:35;4.00;99.90
12720;DHT22;6424;48.520;11.228;2023-02-01T19:34:01;4.00;99.90
12720;DHT22;6424;48.520;11.228;2023-02-01T19:36:42;4.00;99.90
12720;DHT22;6424;48.520;11.228;2023-02-01T19:39:23;4.00;99.90
12720;DHT22;6424;48.520;11.228;2023-02-01T19:42:04;4.00;99.90
12720;DHT22;6424;48.520;11.228;2023-02-01T19:44:47;4.00;99.90
12720;DHT22;6424;48.520;11.228;2023-02-01T19:47:28;3.90;99.90
12720;DHT22;6424;48.520;11.228;2023-02-01T19:50:14;4.00;99.90
12720;DHT22;6424;48.520;11.228;2023-02-01T19:52:55;4.00;99.90
12720;DHT22;6424;48.520;11.228;2023-02-01T19:55:36;4.00;99.90
12720;DHT22;6424;48.520;11.228;2023-02-01T19:58:17;4.00;99.90
12720;DHT22;6424;48.520;11.228;2023-02-01T20:00:58;4.00;99.90
12720;DHT22;6424;48.520;11.228;2023-02-01T20:03:27;4.00;99.90
12720;DHT22;6424;48.520;11.228;2023-02-01T20:06:08;4.10;99.90
12720;DHT22;6424;48.520;11.228;2023-02-01T20:08:50;4.10;99.90
12720;DHT22;6424;48.520;11.228;2023-02-01T20:11:31;4.00;99.90
12720;DHT22;6424;48.520;11.228;2023-02-01T20:14:12;4.10;99.90
12720;DHT22;6424;48.520;11.228;2023-02-01T20:16:53;4.10;99.90